sensor_id;sensor_type;location;lat;lon;timestamp;temperature;humidity
61412;DHT22;47278;49.732;7.690;2022-10-16T00:00:42;13.40;99.90
61412;DHT22;47278;49.732;7.690;2022-10-16T00:03:08;13.40;99.90
61412;DHT22;47278;49.732;7.690;2022-10-16T00:05:38;13.40;99.90
61412;DHT22;47278;49.732;7.690;2022-10-16T00:08:04;13.40;99.90
61412;DHT22;47278;49.732;7.690;2022-10-16T00:10:30;13.40;99.90
61412;DHT22;47278;49.732;7.690;2022-10-16T00:12:55;13.40;99.90
61412;DHT22;47278;49.732;7.690;2022-10-16T00:15:21;13.40;99.90
61412;DHT22;47278;49.732;7.690;2022-10-16T00:17:46;13.40;99.90
61412;DHT22;47278;49.732;7.690;2022-10-16T00:20:12;13.40;99.90
61412;DHT22;47278;49.732;7.690;2022-10-16T00:22:38;13.50;99.90
61412;DHT22;47278;49.732;7.690;2022-10-16T00:25:03;13.50;99.90
61412;DHT22;47278;49.732;7.690;2022-10-16T00:27:29;13.50;99.90
61412;DHT22;47278;49.732;7.690;2022-10-16T00:29:54;13.60;99.90
61412;DHT22;47278;49.732;7.690;2022-10-16T00:32:20;13.60;99.90
61412;DHT22;47278;49.732;7.690;2022-10-16T00:34:46;13.50;99.90
61412;DHT22;47278;49.732;7.690;2022-10-16T00:37:12;13.50;99.90
61412;DHT22;47278;49.732;7.690;2022-10-16T00:39:37;13.30;99.90
61412;DHT22;47278;49.732;7.690;2022-10-16T00:42:03;14.70;99.90
61412;DHT22;47278;49.732;7.690;2022-10-16T00:44:51;13.40;99.90
61412;DHT22;47278;49.732;7.690;2022-10-16T00:47:39;13.40;99.90
61412;DHT22;47278;49.732;7.690;2022-10-16T00:50:08;13.50;99.90
61412;DHT22;47278;49.732;7.690;2022-10-16T00:52:34;15.30;99.90
61412;DHT22;47278;49.732;7.690;2022-10-16T00:55:01;13.40;99.90
61412;DHT22;47278;49.732;7.690;2022-10-16T00:57:28;13.40;99.90
61412;DHT22;47278;49.732;7.690;2022-10-16T00:59:53;13.40;99.90
61412;DHT22;47278;49.732;7.690;2022-10-16T01:02:19;13.40;99.90
61412;DHT22;47278;49.732;7.690;2022-10-16T01:04:46;13.40;99.90
61412;DHT22;47278;49.732;7.690;2022-10-16T01:15:04;13.50;99.90
61412;DHT22;47278;49.732;7.690;2022-10-16T01:23:07;13.60;99.90
61412;DHT22;47278;49.732;7.690;2022-10-16T01:28:21;13.70;99.90
61412;DHT22;47278;49.732;7.690;2022-10-16T01:30:47;13.70;99.90
61412;DHT22;47278;49.732;7.690;2022-10-16T01:33:15;13.70;99.90
61412;DHT22;47278;49.732;7.690;2022-10-16T01:35:43;13.80;99.90
61412;DHT22;47278;49.732;7.690;2022-10-16T01:38:20;13.80;99.90
61412;DHT22;47278;49.732;7.690;2022-10-16T01:40:50;13.90;99.90
61412;DHT22;47278;49.732;7.690;2022-10-16T01:43:19;13.80;99.90
61412;DHT22;47278;49.732;7.690;2022-10-16T01:45:45;13.70;99.90
61412;DHT22;47278;49.732;7.690;2022-10-16T01:48:16;13.70;99.90
61412;DHT22;47278;49.732;7.690;2022-10-16T01:50:42;13.80;99.90
61412;DHT22;47278;49.732;7.690;2022-10-16T01:53:10;13.90;99.90
61412;DHT22;47278;49.732;7.690;2022-10-16T01:55:38;14.00;99.90
61412;DHT22;47278;49.732;7.690;2022-10-16T01:58:07;14.00;99.90
61412;DHT22;47278;49.732;7.690;2022-10-16T02:00:33;14.00;99.90
61412;DHT22;47278;49.732;7.690;2022-10-16T02:02:59;14.00;99.90
61412;DHT22;47278;49.732;7.690;2022-10-16T02:06:00;14.00;99.90
61412;DHT22;47278;49.732;7.690;2022-10-16T02:08:19;14.00;99.90
61412;DHT22;47278;49.732;7.690;2022-10-16T02:10:45;14.10;99.90
61412;DHT22;47278;49.732;7.690;2022-10-16T02:13:55;14.10;99.90
61412;DHT22;47278;49.732;7.690;2022-10-16T02:16:00;14.10;99.90
61412;DHT22;47278;49.732;7.690;2022-10-16T02:18:25;14.20;99.90
61412;DHT22;47278;49.732;7.690;2022-10-16T02:20:59;14.10;99.90
61412;DHT22;47278;49.732;7.690;2022-10-16T02:26:45;14.20;99.90
61412;DHT22;47278;49.732;7.690;2022-10-16T02:29:10;14.10;99.90
61412;DHT22;47278;49.732;7.690;2022-10-16T02:31:38;14.10;99.90
61412;DHT22;47278;49.732;7.690;2022-10-16T02:34:06;14.10;99.90
61412;DHT22;47278;49.732;7.690;2022-10-16T02:36:33;14.10;99.90
61412;DHT22;47278;49.732;7.690;2022-10-16T02:39:00;14.10;99.90
61412;DHT22;47278;49.732;7.690;2022-10-16T02:41:26;14.10;99.90
61412;DHT22;47278;49.732;7.690;2022-10-16T02:43:52;14.00;99.90
61412;DHT22;47278;49.732;7.690;2022-10-16T02:46:18;14.00;99.90
61412;DHT22;47278;49.732;7.690;2022-10-16T02:48:44;14.10;99.90
61412;DHT22;47278;49.732;7.690;2022-10-16T02:51:09;14.00;99.90
61412;DHT22;47278;49.732;7.690;2022-10-16T02:53:35;14.00;99.90
61412;DHT22;47278;49.732;7.690;2022-10-16T02:56:01;14.00;99.90
61412;DHT22;47278;49.732;7.690;2022-10-16T02:58:26;14.00;99.90
61412;DHT22;47278;49.732;7.690;2022-10-16T03:00:52;14.00;99.90
61412;DHT22;47278;49.732;7.690;2022-10-16T03:03:17;14.00;99.90
61412;DHT22;47278;49.732;7.690;2022-10-16T03:05:43;14.00;99.90
61412;DHT22;47278;49.732;7.690;2022-10-16T03:08:11;14.10;99.90
61412;DHT22;47278;49.732;7.690;2022-10-16T03:10:36;14.00;99.90
61412;DHT22;47278;49.732;7.690;2022-10-16T03:13:02;14.00;99.90
61412;DHT22;47278;49.732;7.690;2022-10-16T03:15:28;14.00;99.90
61412;DHT22;47278;49.732;7.690;2022-10-16T03:17:54;14.00;99.90
61412;DHT22;47278;49.732;7.690;2022-10-16T03:20:20;13.90;99.90
61412;DHT22;47278;49.732;7.690;2022-10-16T03:22:45;14.00;99.90
61412;DHT22;47278;49.732;7.690;2022-10-16T03:25:11;14.00;99.90
61412;DHT22;47278;49.732;7.690;2022-10-16T03:27:36;14.00;99.90
61412;DHT22;47278;49.732;7.690;2022-10-16T03:30:02;14.00;99.90
61412;DHT22;47278;49.732;7.690;2022-10-16T03:32:27;14.00;99.90
61412;DHT22;47278;49.732;7.690;2022-10-16T03:34:53;14.10;99.90
61412;DHT22;47278;49.732;7.690;2022-10-16T03:37:19;14.10;99.90
61412;DHT22;47278;49.732;7.690;2022-10-16T03:39:45;14.00;99.90
61412;DHT22;47278;49.732;7.690;2022-10-16T03:42:10;14.00;99.90
61412;DHT22;47278;49.732;7.690;2022-10-16T03:44:36;14.10;99.90
61412;DHT22;47278;49.732;7.690;2022-10-16T03:47:01;14.10;99.90
61412;DHT22;47278;49.732;7.690;2022-10-16T03:49:27;14.00;99.90
61412;DHT22;47278;49.732;7.690;2022-10-16T03:51:52;14.00;99.90
61412;DHT22;47278;49.732;7.690;2022-10-16T03:54:18;14.00;99.90
61412;DHT22;47278;49.732;7.690;2022-10-16T03:56:44;13.90;99.90
61412;DHT22;47278;49.732;7.690;2022-10-16T03:59:10;13.80;99.90
61412;DHT22;47278;49.732;7.690;2022-10-16T04:01:35;13.80;99.90
61412;DHT22;47278;49.732;7.690;2022-10-16T04:04:01;13.80;99.90
61412;DHT22;47278;49.732;7.690;2022-10-16T04:06:26;13.80;99.90
61412;DHT22;47278;49.732;7.690;2022-10-16T04:08:52;13.80;99.90
61412;DHT22;47278;49.732;7.690;2022-10-16T04:11:17;13.70;99.90
61412;DHT22;47278;49.732;7.690;2022-10-16T04:13:43;13.70;99.90
61412;DHT22;47278;49.732;7.690;2022-10-16T04:16:09;13.70;99.90
61412;DHT22;47278;49.732;7.690;2022-10-16T04:18:34;13.70;99.90
61412;DHT22;47278;49.732;7.690;2022-10-16T04:21:04;13.80;99.90
61412;DHT22;47278;49.732;7.690;2022-10-16T04:23:30;13.70;99.90
61412;DHT22;47278;49.732;7.690;2022-10-16T04:25:55;13.80;99.90
61412;DHT22;47278;49.732;7.690;2022-10-16T04:28:21;13.70;99.90
61412;DHT22;47278;49.732;7.690;2022-10-16T04:30:46;13.70;99.90
61412;DHT22;47278;49.732;7.690;2022-10-16T04:33:12;13.70;99.90
61412;DHT22;47278;49.732;7.690;2022-10-16T04:35:38;13.60;99.90
61412;DHT22;47278;49.732;7.690;2022-10-16T04:38:04;13.60;99.90
61412;DHT22;47278;49.732;7.690;2022-10-16T04:40:29;13.60;99.90
61412;DHT22;47278;49.732;7.690;2022-10-16T04:42:58;13.50;99.90
61412;DHT22;47278;49.732;7.690;2022-10-16T04:45:24;13.20;99.90
61412;DHT22;47278;49.732;7.690;2022-10-16T04:47:49;13.50;99.90
61412;DHT22;47278;49.732;7.690;2022-10-16T04:50:16;13.50;99.90
61412;DHT22;47278;49.732;7.690;2022-10-16T04:52:42;13.40;99.90
61412;DHT22;47278;49.732;7.690;2022-10-16T04:55:07;13.40;99.90
61412;DHT22;47278;49.732;7.690;2022-10-16T04:57:33;13.40;99.90
61412;DHT22;47278;49.732;7.690;2022-10-16T04:59:59;13.40;99.90
61412;DHT22;47278;49.732;7.690;2022-10-16T05:02:24;13.30;99.90
61412;DHT22;47278;49.732;7.690;2022-10-16T05:04:50;13.30;99.90
61412;DHT22;47278;49.732;7.690;2022-10-16T05:07:16;13.90;99.90
61412;DHT22;47278;49.732;7.690;2022-10-16T05:09:41;12.50;99.90
61412;DHT22;47278;49.732;7.690;2022-10-16T05:12:07;13.30;99.90
61412;DHT22;47278;49.732;7.690;2022-10-16T05:14:32;13.30;99.90
61412;DHT22;47278;49.732;7.690;2022-10-16T05:16:59;13.30;99.90
61412;DHT22;47278;49.732;7.690;2022-10-16T05:19:24;13.40;99.90
61412;DHT22;47278;49.732;7.690;2022-10-16T05:21:50;13.40;99.90
61412;DHT22;47278;49.732;7.690;2022-10-16T05:24:16;13.40;99.90
61412;DHT22;47278;49.732;7.690;2022-10-16T05:26:41;13.40;99.90
61412;DHT22;47278;49.732;7.690;2022-10-16T05:29:07;13.50;99.90
61412;DHT22;47278;49.732;7.690;2022-10-16T05:31:32;13.50;99.90
61412;DHT22;47278;49.732;7.690;2022-10-16T05:34:00;13.50;99.90
61412;DHT22;47278;49.732;7.690;2022-10-16T05:36:26;13.60;99.90
61412;DHT22;47278;49.732;7.690;2022-10-16T05:38:52;13.50;99.90
61412;DHT22;47278;49.732;7.690;2022-10-16T05:41:17;14.50;99.90
61412;DHT22;47278;49.732;7.690;2022-10-16T05:43:47;13.40;99.90
61412;DHT22;47278;49.732;7.690;2022-10-16T05:46:13;13.50;99.90
61412;DHT22;47278;49.732;7.690;2022-10-16T05:48:39;13.50;99.90
61412;DHT22;47278;49.732;7.690;2022-10-16T05:51:05;13.50;99.90
61412;DHT22;47278;49.732;7.690;2022-10-16T05:53:33;13.40;99.90
61412;DHT22;47278;49.732;7.690;2022-10-16T05:55:58;13.40;99.90
61412;DHT22;47278;49.732;7.690;2022-10-16T05:58:24;13.40;99.90
61412;DHT22;47278;49.732;7.690;2022-10-16T06:00:54;13.40;99.90
61412;DHT22;47278;49.732;7.690;2022-10-16T06:03:20;13.40;99.90
61412;DHT22;47278;49.732;7.690;2022-10-16T06:05:46;13.40;99.90
61412;DHT22;47278;49.732;7.690;2022-10-16T06:08:11;13.50;99.90
61412;DHT22;47278;49.732;7.690;2022-10-16T06:10:37;13.50;99.90
61412;DHT22;47278;49.732;7.690;2022-10-16T06:13:02;13.60;99.90
61412;DHT22;47278;49.732;7.690;2022-10-16T06:15:28;13.60;99.90
61412;DHT22;47278;49.732;7.690;2022-10-16T06:17:53;13.60;99.90
61412;DHT22;47278;49.732;7.690;2022-10-16T06:20:19;13.60;99.90
61412;DHT22;47278;49.732;7.690;2022-10-16T06:22:44;13.00;99.90
61412;DHT22;47278;49.732;7.690;2022-10-16T06:25:10;13.70;99.90
61412;DHT22;47278;49.732;7.690;2022-10-16T06:27:35;13.70;99.90
61412;DHT22;47278;49.732;7.690;2022-10-16T06:30:01;13.70;99.90
61412;DHT22;47278;49.732;7.690;2022-10-16T06:32:27;13.80;99.90
61412;DHT22;47278;49.732;7.690;2022-10-16T06:34:52;13.80;99.90
61412;DHT22;47278;49.732;7.690;2022-10-16T06:37:18;13.80;99.90
61412;DHT22;47278;49.732;7.690;2022-10-16T06:39:43;13.90;99.90
61412;DHT22;47278;49.732;7.690;2022-10-16T06:42:09;13.90;99.90
61412;DHT22;47278;49.732;7.690;2022-10-16T06:44:34;13.90;99.90
61412;DHT22;47278;49.732;7.690;2022-10-16T06:47:00;13.90;99.90
61412;DHT22;47278;49.732;7.690;2022-10-16T06:49:26;13.90;99.90
61412;DHT22;47278;49.732;7.690;2022-10-16T06:51:51;13.90;99.90
61412;DHT22;47278;49.732;7.690;2022-10-16T06:54:17;13.90;99.90
61412;DHT22;47278;49.732;7.690;2022-10-16T06:56:43;13.90;99.90
61412;DHT22;47278;49.732;7.690;2022-10-16T06:59:08;13.90;99.90
61412;DHT22;47278;49.732;7.690;2022-10-16T07:01:34;13.90;99.90
61412;DHT22;47278;49.732;7.690;2022-10-16T07:04:00;14.00;99.90
61412;DHT22;47278;49.732;7.690;2022-10-16T07:06:26;14.00;99.90
61412;DHT22;47278;49.732;7.690;2022-10-16T07:08:51;14.00;99.90
61412;DHT22;47278;49.732;7.690;2022-10-16T07:11:18;14.00;99.90
61412;DHT22;47278;49.732;7.690;2022-10-16T07:13:45;14.00;99.90
61412;DHT22;47278;49.732;7.690;2022-10-16T07:16:16;14.00;99.90
61412;DHT22;47278;49.732;7.690;2022-10-16T07:18:42;14.10;99.90
61412;DHT22;47278;49.732;7.690;2022-10-16T07:21:10;14.10;99.90
61412;DHT22;47278;49.732;7.690;2022-10-16T07:23:36;14.10;99.90
61412;DHT22;47278;49.732;7.690;2022-10-16T07:26:03;14.10;99.90
61412;DHT22;47278;49.732;7.690;2022-10-16T07:28:28;14.10;99.90
61412;DHT22;47278;49.732;7.690;2022-10-16T07:30:54;14.20;99.90
61412;DHT22;47278;49.732;7.690;2022-10-16T07:33:20;14.20;99.90
61412;DHT22;47278;49.732;7.690;2022-10-16T07:35:52;14.30;99.90
61412;DHT22;47278;49.732;7.690;2022-10-16T07:38:18;14.30;99.90
61412;DHT22;47278;49.732;7.690;2022-10-16T07:40:44;14.40;99.90
61412;DHT22;47278;49.732;7.690;2022-10-16T07:43:09;14.40;99.90
61412;DHT22;47278;49.732;7.690;2022-10-16T07:45:35;14.40;99.90
61412;DHT22;47278;49.732;7.690;2022-10-16T07:48:01;14.40;99.90
61412;DHT22;47278;49.732;7.690;2022-10-16T07:50:26;14.50;99.90
61412;DHT22;47278;49.732;7.690;2022-10-16T07:52:52;14.50;99.90
61412;DHT22;47278;49.732;7.690;2022-10-16T07:55:17;14.50;99.90
61412;DHT22;47278;49.732;7.690;2022-10-16T07:57:43;14.50;99.90
61412;DHT22;47278;49.732;7.690;2022-10-16T08:00:08;14.50;99.90
61412;DHT22;47278;49.732;7.690;2022-10-16T08:02:39;14.50;99.90
61412;DHT22;47278;49.732;7.690;2022-10-16T08:05:05;14.60;99.90
61412;DHT22;47278;49.732;7.690;2022-10-16T08:07:31;14.60;99.90
61412;DHT22;47278;49.732;7.690;2022-10-16T08:09:56;14.70;99.90
61412;DHT22;47278;49.732;7.690;2022-10-16T08:12:23;14.70;99.90
61412;DHT22;47278;49.732;7.690;2022-10-16T08:14:49;14.80;99.90
61412;DHT22;47278;49.732;7.690;2022-10-16T08:17:14;14.90;99.90
61412;DHT22;47278;49.732;7.690;2022-10-16T08:19:43;15.00;99.90
61412;DHT22;47278;49.732;7.690;2022-10-16T08:22:09;15.00;99.90
61412;DHT22;47278;49.732;7.690;2022-10-16T08:24:34;15.00;99.90
61412;DHT22;47278;49.732;7.690;2022-10-16T08:27:02;15.00;99.90
61412;DHT22;47278;49.732;7.690;2022-10-16T08:29:27;15.10;99.90
61412;DHT22;47278;49.732;7.690;2022-10-16T08:31:53;15.20;99.90
61412;DHT22;47278;49.732;7.690;2022-10-16T08:34:19;15.20;99.90
61412;DHT22;47278;49.732;7.690;2022-10-16T08:36:44;15.30;99.90
61412;DHT22;47278;49.732;7.690;2022-10-16T08:39:10;15.30;99.90
61412;DHT22;47278;49.732;7.690;2022-10-16T08:46:49;15.40;99.90
61412;DHT22;47278;49.732;7.690;2022-10-16T08:49:17;15.60;99.90
61412;DHT22;47278;49.732;7.690;2022-10-16T08:51:42;15.70;99.90
61412;DHT22;47278;49.732;7.690;2022-10-16T08:54:22;15.80;99.90
61412;DHT22;47278;49.732;7.690;2022-10-16T08:56:53;15.20;99.90
61412;DHT22;47278;49.732;7.690;2022-10-16T08:59:19;16.00;99.90
61412;DHT22;47278;49.732;7.690;2022-10-16T09:01:45;16.00;99.90
61412;DHT22;47278;49.732;7.690;2022-10-16T09:06:46;16.00;99.90
61412;DHT22;47278;49.732;7.690;2022-10-16T09:19:50;16.40;99.90
61412;DHT22;47278;49.732;7.690;2022-10-16T09:22:16;16.60;99.90
61412;DHT22;47278;49.732;7.690;2022-10-16T09:24:43;16.60;99.90
61412;DHT22;47278;49.732;7.690;2022-10-16T09:27:11;16.60;99.90
61412;DHT22;47278;49.732;7.690;2022-10-16T09:29:37;16.60;99.90
61412;DHT22;47278;49.732;7.690;2022-10-16T09:32:21;16.80;99.90
61412;DHT22;47278;49.732;7.690;2022-10-16T09:34:51;17.00;99.90
61412;DHT22;47278;49.732;7.690;2022-10-16T09:37:18;17.10;99.90
61412;DHT22;47278;49.732;7.690;2022-10-16T09:39:53;17.20;99.90
61412;DHT22;47278;49.732;7.690;2022-10-16T09:42:23;17.30;99.90
61412;DHT22;47278;49.732;7.690;2022-10-16T09:44:52;17.50;99.90
61412;DHT22;47278;49.732;7.690;2022-10-16T09:47:25;17.40;99.90
61412;DHT22;47278;49.732;7.690;2022-10-16T09:52:20;17.50;99.90
61412;DHT22;47278;49.732;7.690;2022-10-16T09:54:50;17.70;99.90
61412;DHT22;47278;49.732;7.690;2022-10-16T09:57:16;17.70;99.90
61412;DHT22;47278;49.732;7.690;2022-10-16T10:02:14;17.90;99.90
61412;DHT22;47278;49.732;7.690;2022-10-16T10:04:42;17.80;99.90
61412;DHT22;47278;49.732;7.690;2022-10-16T10:07:43;17.80;99.90
61412;DHT22;47278;49.732;7.690;2022-10-16T10:10:03;17.80;99.90
61412;DHT22;47278;49.732;7.690;2022-10-16T10:12:31;18.30;99.90
61412;DHT22;47278;49.732;7.690;2022-10-16T10:15:03;17.70;99.90
61412;DHT22;47278;49.732;7.690;2022-10-16T10:17:29;17.60;99.90
61412;DHT22;47278;49.732;7.690;2022-10-16T10:19:57;17.60;99.90
61412;DHT22;47278;49.732;7.690;2022-10-16T10:24:58;17.60;99.90
61412;DHT22;47278;49.732;7.690;2022-10-16T10:27:33;17.50;99.90
61412;DHT22;47278;49.732;7.690;2022-10-16T10:32:54;17.50;99.90
61412;DHT22;47278;49.732;7.690;2022-10-16T10:35:22;17.60;99.90
61412;DHT22;47278;49.732;7.690;2022-10-16T10:38:38;17.60;99.90
61412;DHT22;47278;49.732;7.690;2022-10-16T10:48:16;18.00;99.90
61412;DHT22;47278;49.732;7.690;2022-10-16T10:51:01;18.10;99.90
61412;DHT22;47278;49.732;7.690;2022-10-16T10:53:52;18.10;99.90
61412;DHT22;47278;49.732;7.690;2022-10-16T10:56:29;18.10;99.90
61412;DHT22;47278;49.732;7.690;2022-10-16T11:01:55;18.50;99.90
61412;DHT22;47278;49.732;7.690;2022-10-16T11:04:37;18.40;99.90
61412;DHT22;47278;49.732;7.690;2022-10-16T11:07:09;18.30;99.90
61412;DHT22;47278;49.732;7.690;2022-10-16T11:09:37;18.50;99.90
61412;DHT22;47278;49.732;7.690;2022-10-16T11:17:07;18.60;99.90
61412;DHT22;47278;49.732;7.690;2022-10-16T11:19:55;18.40;99.90
61412;DHT22;47278;49.732;7.690;2022-10-16T11:27:12;19.00;99.90
61412;DHT22;47278;49.732;7.690;2022-10-16T11:29:52;19.60;99.90
61412;DHT22;47278;49.732;7.690;2022-10-16T11:32:20;19.80;99.90
61412;DHT22;47278;49.732;7.690;2022-10-16T11:34:52;19.60;99.90
61412;DHT22;47278;49.732;7.690;2022-10-16T11:39:44;19.30;99.90
61412;DHT22;47278;49.732;7.690;2022-10-16T11:42:27;19.20;99.90
61412;DHT22;47278;49.732;7.690;2022-10-16T11:45:00;19.10;99.90
61412;DHT22;47278;49.732;7.690;2022-10-16T11:50:33;19.10;99.90
61412;DHT22;47278;49.732;7.690;2022-10-16T11:55:17;19.20;99.90
61412;DHT22;47278;49.732;7.690;2022-10-16T11:57:51;19.30;99.90
61412;DHT22;47278;49.732;7.690;2022-10-16T12:05:18;19.60;99.90
61412;DHT22;47278;49.732;7.690;2022-10-16T12:08:30;19.50;99.90
61412;DHT22;47278;49.732;7.690;2022-10-16T12:10:30;19.40;99.90
61412;DHT22;47278;49.732;7.690;2022-10-16T12:15:46;19.20;99.90
61412;DHT22;47278;49.732;7.690;2022-10-16T12:18:22;19.10;99.90
61412;DHT22;47278;49.732;7.690;2022-10-16T12:20:54;17.10;99.90
61412;DHT22;47278;49.732;7.690;2022-10-16T12:23:24;19.10;99.90
61412;DHT22;47278;49.732;7.690;2022-10-16T12:25:54;19.10;99.90
61412;DHT22;47278;49.732;7.690;2022-10-16T12:28:21;19.10;99.90
61412;DHT22;47278;49.732;7.690;2022-10-16T12:31:04;19.20;99.90
61412;DHT22;47278;49.732;7.690;2022-10-16T12:33:31;19.30;99.90
61412;DHT22;47278;49.732;7.690;2022-10-16T12:35:59;19.40;99.90
61412;DHT22;47278;49.732;7.690;2022-10-16T12:38:26;19.50;99.90
61412;DHT22;47278;49.732;7.690;2022-10-16T12:41:06;19.60;99.90
61412;DHT22;47278;49.732;7.690;2022-10-16T12:43:38;19.50;99.90
61412;DHT22;47278;49.732;7.690;2022-10-16T12:48:33;19.40;99.90
61412;DHT22;47278;49.732;7.690;2022-10-16T12:51:09;19.30;99.90
61412;DHT22;47278;49.732;7.690;2022-10-16T12:53:34;19.20;99.90
61412;DHT22;47278;49.732;7.690;2022-10-16T13:00:57;19.00;99.90
61412;DHT22;47278;49.732;7.690;2022-10-16T13:06:22;18.90;99.90
61412;DHT22;47278;49.732;7.690;2022-10-16T13:29:42;19.00;99.90
61412;DHT22;47278;49.732;7.690;2022-10-16T13:32:08;19.10;99.90
61412;DHT22;47278;49.732;7.690;2022-10-16T13:34:41;19.00;99.90
61412;DHT22;47278;49.732;7.690;2022-10-16T13:37:15;19.00;99.90
61412;DHT22;47278;49.732;7.690;2022-10-16T13:39:41;19.00;99.90
61412;DHT22;47278;49.732;7.690;2022-10-16T13:42:11;19.00;99.90
61412;DHT22;47278;49.732;7.690;2022-10-16T13:44:42;19.00;99.90
61412;DHT22;47278;49.732;7.690;2022-10-16T13:47:18;19.00;99.90
61412;DHT22;47278;49.732;7.690;2022-10-16T13:49:44;19.00;99.90
61412;DHT22;47278;49.732;7.690;2022-10-16T13:52:17;19.10;99.90
61412;DHT22;47278;49.732;7.690;2022-10-16T13:54:43;19.10;99.90
61412;DHT22;47278;49.732;7.690;2022-10-16T13:57:11;19.10;99.90
61412;DHT22;47278;49.732;7.690;2022-10-16T13:59:37;19.10;99.90
61412;DHT22;47278;49.732;7.690;2022-10-16T14:04:48;19.20;99.90
61412;DHT22;47278;49.732;7.690;2022-10-16T14:07:14;19.20;99.90
61412;DHT22;47278;49.732;7.690;2022-10-16T14:09:47;19.20;99.90
61412;DHT22;47278;49.732;7.690;2022-10-16T14:12:13;19.40;99.90
61412;DHT22;47278;49.732;7.690;2022-10-16T14:14:42;19.30;99.90
61412;DHT22;47278;49.732;7.690;2022-10-16T14:17:15;19.30;99.90
61412;DHT22;47278;49.732;7.690;2022-10-16T14:19:45;19.30;99.90
61412;DHT22;47278;49.732;7.690;2022-10-16T14:22:33;19.20;99.90
61412;DHT22;47278;49.732;7.690;2022-10-16T14:24:57;19.00;99.90
61412;DHT22;47278;49.732;7.690;2022-10-16T14:27:35;19.00;99.90
61412;DHT22;47278;49.732;7.690;2022-10-16T14:32:34;19.10;99.90
61412;DHT22;47278;49.732;7.690;2022-10-16T14:34:59;19.20;99.90
61412;DHT22;47278;49.732;7.690;2022-10-16T14:37:26;19.20;99.90
61412;DHT22;47278;49.732;7.690;2022-10-16T14:39:52;19.30;99.90
61412;DHT22;47278;49.732;7.690;2022-10-16T14:42:18;19.30;99.90
61412;DHT22;47278;49.732;7.690;2022-10-16T14:44:45;19.30;99.90
61412;DHT22;47278;49.732;7.690;2022-10-16T14:47:15;19.30;99.90
61412;DHT22;47278;49.732;7.690;2022-10-16T14:49:42;19.20;99.90
61412;DHT22;47278;49.732;7.690;2022-10-16T14:52:09;19.10;99.90
61412;DHT22;47278;49.732;7.690;2022-10-16T14:54:35;19.10;99.90
61412;DHT22;47278;49.732;7.690;2022-10-16T14:57:00;19.10;99.90
61412;DHT22;47278;49.732;7.690;2022-10-16T15:01:57;19.00;99.90
61412;DHT22;47278;49.732;7.690;2022-10-16T15:04:23;19.10;99.90
61412;DHT22;47278;49.732;7.690;2022-10-16T15:06:49;19.10;99.90
61412;DHT22;47278;49.732;7.690;2022-10-16T15:09:14;19.10;99.90
61412;DHT22;47278;49.732;7.690;2022-10-16T15:11:40;19.10;99.90
61412;DHT22;47278;49.732;7.690;2022-10-16T15:14:08;19.10;99.90
61412;DHT22;47278;49.732;7.690;2022-10-16T15:16:33;19.00;99.90
61412;DHT22;47278;49.732;7.690;2022-10-16T15:18:59;19.00;99.90
61412;DHT22;47278;49.732;7.690;2022-10-16T15:21:29;18.90;99.90
61412;DHT22;47278;49.732;7.690;2022-10-16T15:23:55;18.90;99.90
61412;DHT22;47278;49.732;7.690;2022-10-16T15:26:22;18.80;99.90
61412;DHT22;47278;49.732;7.690;2022-10-16T15:28:48;18.80;99.90
61412;DHT22;47278;49.732;7.690;2022-10-16T15:31:13;18.70;99.90
61412;DHT22;47278;49.732;7.690;2022-10-16T15:33:39;18.70;99.90
61412;DHT22;47278;49.732;7.690;2022-10-16T15:36:04;18.70;99.90
61412;DHT22;47278;49.732;7.690;2022-10-16T15:38:30;18.70;99.90
61412;DHT22;47278;49.732;7.690;2022-10-16T15:40:56;18.60;99.90
61412;DHT22;47278;49.732;7.690;2022-10-16T15:43:22;18.50;99.90
61412;DHT22;47278;49.732;7.690;2022-10-16T15:45:54;18.50;99.90
61412;DHT22;47278;49.732;7.690;2022-10-16T15:48:23;18.50;99.90
61412;DHT22;47278;49.732;7.690;2022-10-16T15:50:49;18.50;99.90
61412;DHT22;47278;49.732;7.690;2022-10-16T15:53:14;18.40;99.90
61412;DHT22;47278;49.732;7.690;2022-10-16T15:55:40;18.40;99.90
61412;DHT22;47278;49.732;7.690;2022-10-16T15:58:05;18.30;99.90
61412;DHT22;47278;49.732;7.690;2022-10-16T16:00:31;18.30;99.90
61412;DHT22;47278;49.732;7.690;2022-10-16T16:02:56;18.20;99.90
61412;DHT22;47278;49.732;7.690;2022-10-16T16:05:22;18.20;99.90
61412;DHT22;47278;49.732;7.690;2022-10-16T16:07:48;18.10;99.90
61412;DHT22;47278;49.732;7.690;2022-10-16T16:10:14;18.00;99.90
61412;DHT22;47278;49.732;7.690;2022-10-16T16:12:40;18.00;99.90
61412;DHT22;47278;49.732;7.690;2022-10-16T16:15:06;17.90;99.90
61412;DHT22;47278;49.732;7.690;2022-10-16T16:17:33;17.90;99.90
61412;DHT22;47278;49.732;7.690;2022-10-16T16:20:00;17.90;99.90
61412;DHT22;47278;49.732;7.690;2022-10-16T16:22:26;17.80;99.90
61412;DHT22;47278;49.732;7.690;2022-10-16T16:24:52;17.70;99.90
61412;DHT22;47278;49.732;7.690;2022-10-16T16:27:17;17.60;99.90
61412;DHT22;47278;49.732;7.690;2022-10-16T16:29:44;17.60;99.90
61412;DHT22;47278;49.732;7.690;2022-10-16T16:32:10;17.50;99.90
61412;DHT22;47278;49.732;7.690;2022-10-16T16:34:36;17.40;99.90
61412;DHT22;47278;49.732;7.690;2022-10-16T16:37:01;17.40;99.90
61412;DHT22;47278;49.732;7.690;2022-10-16T16:39:27;17.30;99.90
61412;DHT22;47278;49.732;7.690;2022-10-16T16:41:54;17.30;99.90
61412;DHT22;47278;49.732;7.690;2022-10-16T16:44:20;17.30;99.90
61412;DHT22;47278;49.732;7.690;2022-10-16T16:46:46;17.30;99.90
61412;DHT22;47278;49.732;7.690;2022-10-16T16:49:12;17.20;99.90
61412;DHT22;47278;49.732;7.690;2022-10-16T16:51:38;17.10;99.90
61412;DHT22;47278;49.732;7.690;2022-10-16T16:54:04;16.90;99.90
61412;DHT22;47278;49.732;7.690;2022-10-16T16:56:29;16.80;99.90
61412;DHT22;47278;49.732;7.690;2022-10-16T16:58:55;16.80;99.90
61412;DHT22;47278;49.732;7.690;2022-10-16T17:01:22;16.70;99.90
61412;DHT22;47278;49.732;7.690;2022-10-16T17:03:49;16.50;99.90
61412;DHT22;47278;49.732;7.690;2022-10-16T17:06:15;16.40;99.90
61412;DHT22;47278;49.732;7.690;2022-10-16T17:08:41;16.40;99.90
61412;DHT22;47278;49.732;7.690;2022-10-16T17:11:11;16.30;99.90
61412;DHT22;47278;49.732;7.690;2022-10-16T17:13:37;16.20;99.90
61412;DHT22;47278;49.732;7.690;2022-10-16T17:16:03;16.10;99.90
61412;DHT22;47278;49.732;7.690;2022-10-16T17:18:30;16.00;99.90
61412;DHT22;47278;49.732;7.690;2022-10-16T17:20:58;16.00;99.90
61412;DHT22;47278;49.732;7.690;2022-10-16T17:23:24;15.90;99.90
61412;DHT22;47278;49.732;7.690;2022-10-16T17:25:49;15.80;99.90
61412;DHT22;47278;49.732;7.690;2022-10-16T17:28:15;15.70;99.90
61412;DHT22;47278;49.732;7.690;2022-10-16T17:30:41;15.60;99.90
61412;DHT22;47278;49.732;7.690;2022-10-16T17:33:07;15.60;99.90
61412;DHT22;47278;49.732;7.690;2022-10-16T17:35:39;15.60;99.90